sensor_id;sensor_type;location;lat;lon;timestamp;temperature;humidity
32506;DHT22;18955;51.224;8.482;2024-02-26T00:01:00;7.30;74.80
32506;DHT22;18955;51.224;8.482;2024-02-26T00:03:27;7.70;73.30
32506;DHT22;18955;51.224;8.482;2024-02-26T00:05:54;7.60;73.50
32506;DHT22;18955;51.224;8.482;2024-02-26T00:08:21;7.30;74.40
32506;DHT22;18955;51.224;8.482;2024-02-26T00:10:48;7.30;74.90
32506;DHT22;18955;51.224;8.482;2024-02-26T00:13:14;7.70;73.30
32506;DHT22;18955;51.224;8.482;2024-02-26T00:15:40;7.60;73.30
32506;DHT22;18955;51.224;8.482;2024-02-26T00:18:07;7.40;74.30
32506;DHT22;18955;51.224;8.482;2024-02-26T00:20:33;7.30;74.80
32506;DHT22;18955;51.224;8.482;2024-02-26T00:22:59;7.70;73.30
32506;DHT22;18955;51.224;8.482;2024-02-26T00:25:25;7.60;73.20
32506;DHT22;18955;51.224;8.482;2024-02-26T00:27:52;7.40;74.20
32506;DHT22;18955;51.224;8.482;2024-02-26T00:30:18;7.30;74.80
32506;DHT22;18955;51.224;8.482;2024-02-26T00:32:44;7.70;73.60
32506;DHT22;18955;51.224;8.482;2024-02-26T00:35:10;7.60;73.40
32506;DHT22;18955;51.224;8.482;2024-02-26T00:37:36;7.40;74.20
32506;DHT22;18955;51.224;8.482;2024-02-26T00:40:03;7.30;74.70
32506;DHT22;18955;51.224;8.482;2024-02-26T00:42:29;7.70;73.50
32506;DHT22;18955;51.224;8.482;2024-02-26T00:44:55;7.60;73.10
32506;DHT22;18955;51.224;8.482;2024-02-26T00:47:21;7.50;74.00
32506;DHT22;18955;51.224;8.482;2024-02-26T00:49:48;7.20;74.60
32506;DHT22;18955;51.224;8.482;2024-02-26T00:52:14;7.60;73.70
32506;DHT22;18955;51.224;8.482;2024-02-26T00:54:40;7.60;73.20
32506;DHT22;18955;51.224;8.482;2024-02-26T00:57:07;7.40;73.80
32506;DHT22;18955;51.224;8.482;2024-02-26T00:59:34;7.20;74.60
32506;DHT22;18955;51.224;8.482;2024-02-26T01:02:00;7.60;74.00
32506;DHT22;18955;51.224;8.482;2024-02-26T01:04:28;7.70;73.10
32506;DHT22;18955;51.224;8.482;2024-02-26T01:06:54;7.50;73.70
32506;DHT22;18955;51.224;8.482;2024-02-26T01:09:20;7.20;74.60
32506;DHT22;18955;51.224;8.482;2024-02-26T01:11:46;7.50;74.10
32506;DHT22;18955;51.224;8.482;2024-02-26T01:14:13;7.60;73.20
32506;DHT22;18955;51.224;8.482;2024-02-26T01:16:39;7.40;73.20
32506;DHT22;18955;51.224;8.482;2024-02-26T01:19:05;7.30;74.60
32506;DHT22;18955;51.224;8.482;2024-02-26T01:21:31;7.50;74.20
32506;DHT22;18955;51.224;8.482;2024-02-26T01:23:58;7.70;73.00
32506;DHT22;18955;51.224;8.482;2024-02-26T01:26:24;7.50;73.70
32506;DHT22;18955;51.224;8.482;2024-02-26T01:28:50;7.30;74.50
32506;DHT22;18955;51.224;8.482;2024-02-26T01:31:16;7.40;74.50
32506;DHT22;18955;51.224;8.482;2024-02-26T01:33:43;7.70;73.10
32506;DHT22;18955;51.224;8.482;2024-02-26T01:36:09;7.50;73.50
32506;DHT22;18955;51.224;8.482;2024-02-26T01:38:35;7.30;74.30
32506;DHT22;18955;51.224;8.482;2024-02-26T01:41:01;7.40;74.70
32506;DHT22;18955;51.224;8.482;2024-02-26T01:43:28;7.70;73.10
32506;DHT22;18955;51.224;8.482;2024-02-26T01:45:54;7.50;73.40
32506;DHT22;18955;51.224;8.482;2024-02-26T01:48:21;7.30;74.30
32506;DHT22;18955;51.224;8.482;2024-02-26T01:50:47;7.30;74.80
32506;DHT22;18955;51.224;8.482;2024-02-26T01:53:13;7.60;73.20
32506;DHT22;18955;51.224;8.482;2024-02-26T01:55:40;7.50;73.40
32506;DHT22;18955;51.224;8.482;2024-02-26T01:58:07;7.30;74.30
32506;DHT22;18955;51.224;8.482;2024-02-26T02:00:33;7.30;74.80
32506;DHT22;18955;51.224;8.482;2024-02-26T02:03:00;7.70;73.20
32506;DHT22;18955;51.224;8.482;2024-02-26T02:05:26;7.60;73.30
32506;DHT22;18955;51.224;8.482;2024-02-26T02:07:53;7.30;74.10
32506;DHT22;18955;51.224;8.482;2024-02-26T02:10:20;7.20;74.60
32506;DHT22;18955;51.224;8.482;2024-02-26T02:12:51;7.70;73.10
32506;DHT22;18955;51.224;8.482;2024-02-26T02:15:17;7.60;73.10
32506;DHT22;18955;51.224;8.482;2024-02-26T02:17:44;7.40;74.10
32506;DHT22;18955;51.224;8.482;2024-02-26T02:20:15;7.30;74.60
32506;DHT22;18955;51.224;8.482;2024-02-26T02:22:44;7.70;73.10
32506;DHT22;18955;51.224;8.482;2024-02-26T02:25:10;7.60;73.60
32506;DHT22;18955;51.224;8.482;2024-02-26T02:27:36;7.30;73.90
32506;DHT22;18955;51.224;8.482;2024-02-26T02:30:03;7.20;74.60
32506;DHT22;18955;51.224;8.482;2024-02-26T02:32:30;7.60;73.30
32506;DHT22;18955;51.224;8.482;2024-02-26T02:34:57;7.60;73.20
32506;DHT22;18955;51.224;8.482;2024-02-26T02:37:23;7.30;74.00
32506;DHT22;18955;51.224;8.482;2024-02-26T02:39:49;7.20;74.60
32506;DHT22;18955;51.224;8.482;2024-02-26T02:42:15;7.60;73.30
32506;DHT22;18955;51.224;8.482;2024-02-26T02:44:42;7.60;73.20
32506;DHT22;18955;51.224;8.482;2024-02-26T02:47:08;7.30;73.90
32506;DHT22;18955;51.224;8.482;2024-02-26T02:49:34;7.20;74.60
32506;DHT22;18955;51.224;8.482;2024-02-26T02:52:00;7.60;73.30
32506;DHT22;18955;51.224;8.482;2024-02-26T02:54:27;7.60;73.00
32506;DHT22;18955;51.224;8.482;2024-02-26T02:56:53;7.40;73.90
32506;DHT22;18955;51.224;8.482;2024-02-26T02:59:19;7.20;74.60
32506;DHT22;18955;51.224;8.482;2024-02-26T03:01:45;7.60;73.40
32506;DHT22;18955;51.224;8.482;2024-02-26T03:04:12;7.60;73.00
32506;DHT22;18955;51.224;8.482;2024-02-26T03:06:38;7.40;73.80
32506;DHT22;18955;51.224;8.482;2024-02-26T03:09:04;7.20;74.60
32506;DHT22;18955;51.224;8.482;2024-02-26T03:11:30;7.60;73.70
32506;DHT22;18955;51.224;8.482;2024-02-26T03:13:57;7.70;73.00
32506;DHT22;18955;51.224;8.482;2024-02-26T03:16:23;7.50;73.60
32506;DHT22;18955;51.224;8.482;2024-02-26T03:18:49;7.20;74.40
32506;DHT22;18955;51.224;8.482;2024-02-26T03:21:15;7.50;73.90
32506;DHT22;18955;51.224;8.482;2024-02-26T03:23:41;7.70;73.00
32506;DHT22;18955;51.224;8.482;2024-02-26T03:26:08;7.50;73.60
32506;DHT22;18955;51.224;8.482;2024-02-26T03:28:34;7.20;74.40
32506;DHT22;18955;51.224;8.482;2024-02-26T03:31:01;7.40;74.20
32506;DHT22;18955;51.224;8.482;2024-02-26T03:33:28;7.70;72.90
32506;DHT22;18955;51.224;8.482;2024-02-26T03:35:54;7.50;73.40
32506;DHT22;18955;51.224;8.482;2024-02-26T03:38:20;7.30;74.40
32506;DHT22;18955;51.224;8.482;2024-02-26T03:40:46;7.40;74.60
32506;DHT22;18955;51.224;8.482;2024-02-26T03:43:13;7.70;73.00
32506;DHT22;18955;51.224;8.482;2024-02-26T03:45:39;7.50;73.40
32506;DHT22;18955;51.224;8.482;2024-02-26T03:48:06;7.30;74.40
32506;DHT22;18955;51.224;8.482;2024-02-26T03:50:32;7.30;74.80
32506;DHT22;18955;51.224;8.482;2024-02-26T03:52:58;7.70;73.00
32506;DHT22;18955;51.224;8.482;2024-02-26T03:55:25;7.60;73.30
32506;DHT22;18955;51.224;8.482;2024-02-26T03:57:52;7.30;74.20
32506;DHT22;18955;51.224;8.482;2024-02-26T04:00:18;7.30;74.80
32506;DHT22;18955;51.224;8.482;2024-02-26T04:02:46;7.70;73.20
32506;DHT22;18955;51.224;8.482;2024-02-26T04:05:13;7.60;73.20
32506;DHT22;18955;51.224;8.482;2024-02-26T04:07:40;7.40;74.40
32506;DHT22;18955;51.224;8.482;2024-02-26T04:10:10;7.20;74.70
32506;DHT22;18955;51.224;8.482;2024-02-26T04:12:39;7.70;73.20
32506;DHT22;18955;51.224;8.482;2024-02-26T04:15:07;7.70;73.10
32506;DHT22;18955;51.224;8.482;2024-02-26T04:17:34;7.40;74.00
32506;DHT22;18955;51.224;8.482;2024-02-26T04:20:00;7.20;74.60
32506;DHT22;18955;51.224;8.482;2024-02-26T04:22:26;7.70;73.50
32506;DHT22;18955;51.224;8.482;2024-02-26T04:24:52;7.70;73.10
32506;DHT22;18955;51.224;8.482;2024-02-26T04:27:19;7.50;73.90
32506;DHT22;18955;51.224;8.482;2024-02-26T04:29:45;7.20;74.70
32506;DHT22;18955;51.224;8.482;2024-02-26T04:32:11;7.60;73.90
32506;DHT22;18955;51.224;8.482;2024-02-26T04:34:37;7.70;73.10
32506;DHT22;18955;51.224;8.482;2024-02-26T04:37:03;7.50;73.70
32506;DHT22;18955;51.224;8.482;2024-02-26T04:39:30;7.30;74.60
32506;DHT22;18955;51.224;8.482;2024-02-26T04:41:56;7.50;74.10
32506;DHT22;18955;51.224;8.482;2024-02-26T04:44:22;7.80;73.00
32506;DHT22;18955;51.224;8.482;2024-02-26T04:46:48;7.50;73.40
32506;DHT22;18955;51.224;8.482;2024-02-26T04:49:14;7.30;74.40
32506;DHT22;18955;51.224;8.482;2024-02-26T04:51:41;7.40;74.60
32506;DHT22;18955;51.224;8.482;2024-02-26T04:54:07;7.80;72.80
32506;DHT22;18955;51.224;8.482;2024-02-26T04:56:33;7.60;73.20
32506;DHT22;18955;51.224;8.482;2024-02-26T04:58:59;7.40;74.30
32506;DHT22;18955;51.224;8.482;2024-02-26T05:01:25;7.30;74.70
32506;DHT22;18955;51.224;8.482;2024-02-26T05:03:52;7.80;73.10
32506;DHT22;18955;51.224;8.482;2024-02-26T05:06:18;7.70;73.20
32506;DHT22;18955;51.224;8.482;2024-02-26T05:08:46;7.40;74.10
32506;DHT22;18955;51.224;8.482;2024-02-26T05:11:13;7.30;74.60
32506;DHT22;18955;51.224;8.482;2024-02-26T05:13:39;7.70;73.30
32506;DHT22;18955;51.224;8.482;2024-02-26T05:16:05;7.70;73.20
32506;DHT22;18955;51.224;8.482;2024-02-26T05:18:31;7.40;74.00
32506;DHT22;18955;51.224;8.482;2024-02-26T05:20:58;7.30;74.60
32506;DHT22;18955;51.224;8.482;2024-02-26T05:23:24;7.70;73.40
32506;DHT22;18955;51.224;8.482;2024-02-26T05:25:50;7.70;73.10
32506;DHT22;18955;51.224;8.482;2024-02-26T05:28:16;7.40;73.80
32506;DHT22;18955;51.224;8.482;2024-02-26T05:30:44;7.30;74.60
32506;DHT22;18955;51.224;8.482;2024-02-26T05:33:10;7.60;73.70
32506;DHT22;18955;51.224;8.482;2024-02-26T05:35:37;7.70;73.10
32506;DHT22;18955;51.224;8.482;2024-02-26T05:38:03;7.50;73.80
32506;DHT22;18955;51.224;8.482;2024-02-26T05:40:29;7.30;74.70
32506;DHT22;18955;51.224;8.482;2024-02-26T05:42:56;7.60;74.10
32506;DHT22;18955;51.224;8.482;2024-02-26T05:45:22;7.70;73.00
32506;DHT22;18955;51.224;8.482;2024-02-26T05:47:48;7.60;73.60
32506;DHT22;18955;51.224;8.482;2024-02-26T05:50:15;7.30;74.50
32506;DHT22;18955;51.224;8.482;2024-02-26T05:52:42;7.40;74.50
32506;DHT22;18955;51.224;8.482;2024-02-26T05:55:09;7.80;73.10
32506;DHT22;18955;51.224;8.482;2024-02-26T05:57:36;7.50;73.40
32506;DHT22;18955;51.224;8.482;2024-02-26T06:00:02;7.30;74.40
32506;DHT22;18955;51.224;8.482;2024-02-26T06:02:37;7.30;74.90
32506;DHT22;18955;51.224;8.482;2024-02-26T06:05:04;7.70;73.00
32506;DHT22;18955;51.224;8.482;2024-02-26T06:07:30;7.60;73.40
32506;DHT22;18955;51.224;8.482;2024-02-26T06:09:57;7.40;74.30
32506;DHT22;18955;51.224;8.482;2024-02-26T06:12:23;7.30;74.70
32506;DHT22;18955;51.224;8.482;2024-02-26T06:14:49;7.70;73.20
32506;DHT22;18955;51.224;8.482;2024-02-26T06:17:15;7.60;73.30
32506;DHT22;18955;51.224;8.482;2024-02-26T06:19:42;7.40;74.20
32506;DHT22;18955;51.224;8.482;2024-02-26T06:22:08;7.30;74.70
32506;DHT22;18955;51.224;8.482;2024-02-26T06:24:35;7.70;73.20
32506;DHT22;18955;51.224;8.482;2024-02-26T06:27:01;7.70;73.10
32506;DHT22;18955;51.224;8.482;2024-02-26T06:29:27;7.50;73.90
32506;DHT22;18955;51.224;8.482;2024-02-26T06:31:53;7.30;74.60
32506;DHT22;18955;51.224;8.482;2024-02-26T06:34:20;7.70;73.70
32506;DHT22;18955;51.224;8.482;2024-02-26T06:36:46;7.70;73.10
32506;DHT22;18955;51.224;8.482;2024-02-26T06:39:13;7.50;73.80
32506;DHT22;18955;51.224;8.482;2024-02-26T06:41:41;7.30;74.80
32506;DHT22;18955;51.224;8.482;2024-02-26T06:44:07;7.60;74.10
32506;DHT22;18955;51.224;8.482;2024-02-26T06:46:33;7.80;73.20
32506;DHT22;18955;51.224;8.482;2024-02-26T06:48:59;7.50;73.70
32506;DHT22;18955;51.224;8.482;2024-02-26T06:51:26;7.30;74.70
32506;DHT22;18955;51.224;8.482;2024-02-26T06:53:52;7.50;74.50
32506;DHT22;18955;51.224;8.482;2024-02-26T06:56:18;7.80;73.00
32506;DHT22;18955;51.224;8.482;2024-02-26T06:58:45;7.60;73.40
32506;DHT22;18955;51.224;8.482;2024-02-26T07:01:12;7.40;74.40
32506;DHT22;18955;51.224;8.482;2024-02-26T07:03:40;7.40;74.80
32506;DHT22;18955;51.224;8.482;2024-02-26T07:06:06;7.80;72.90
32506;DHT22;18955;51.224;8.482;2024-02-26T07:08:34;7.70;73.30
32506;DHT22;18955;51.224;8.482;2024-02-26T07:11:00;7.40;74.30
32506;DHT22;18955;51.224;8.482;2024-02-26T07:13:26;7.30;74.80
32506;DHT22;18955;51.224;8.482;2024-02-26T07:15:53;7.80;73.30
32506;DHT22;18955;51.224;8.482;2024-02-26T07:18:19;7.70;73.30
32506;DHT22;18955;51.224;8.482;2024-02-26T07:20:45;7.50;74.10
32506;DHT22;18955;51.224;8.482;2024-02-26T07:23:11;7.30;74.80
32506;DHT22;18955;51.224;8.482;2024-02-26T07:25:38;7.70;73.50
32506;DHT22;18955;51.224;8.482;2024-02-26T07:28:05;7.80;73.20
32506;DHT22;18955;51.224;8.482;2024-02-26T07:30:32;7.50;73.90
32506;DHT22;18955;51.224;8.482;2024-02-26T07:32:58;7.30;74.70
32506;DHT22;18955;51.224;8.482;2024-02-26T07:35:24;7.70;74.00
32506;DHT22;18955;51.224;8.482;2024-02-26T07:37:51;7.80;73.10
32506;DHT22;18955;51.224;8.482;2024-02-26T07:40:17;7.60;73.70
32506;DHT22;18955;51.224;8.482;2024-02-26T07:42:43;7.40;74.60
32506;DHT22;18955;51.224;8.482;2024-02-26T07:45:10;7.50;74.50
32506;DHT22;18955;51.224;8.482;2024-02-26T07:47:36;7.80;73.10
32506;DHT22;18955;51.224;8.482;2024-02-26T07:50:04;7.70;73.60
32506;DHT22;18955;51.224;8.482;2024-02-26T07:52:30;7.40;74.60
32506;DHT22;18955;51.224;8.482;2024-02-26T07:54:56;7.40;75.40
32506;DHT22;18955;51.224;8.482;2024-02-26T07:57:23;7.80;73.30
32506;DHT22;18955;51.224;8.482;2024-02-26T07:59:49;7.70;73.60
32506;DHT22;18955;51.224;8.482;2024-02-26T08:02:16;7.50;74.50
32506;DHT22;18955;51.224;8.482;2024-02-26T08:04:42;7.40;75.00
32506;DHT22;18955;51.224;8.482;2024-02-26T08:07:09;7.80;73.40
32506;DHT22;18955;51.224;8.482;2024-02-26T08:09:35;7.70;73.50
32506;DHT22;18955;51.224;8.482;2024-02-26T08:12:01;7.50;74.40
32506;DHT22;18955;51.224;8.482;2024-02-26T08:14:27;7.30;75.10
32506;DHT22;18955;51.224;8.482;2024-02-26T08:16:54;7.90;73.50
32506;DHT22;18955;51.224;8.482;2024-02-26T08:19:20;7.80;73.30
32506;DHT22;18955;51.224;8.482;2024-02-26T08:21:46;7.60;74.00
32506;DHT22;18955;51.224;8.482;2024-02-26T08:24:12;7.40;74.90
32506;DHT22;18955;51.224;8.482;2024-02-26T08:26:39;7.80;73.90
32506;DHT22;18955;51.224;8.482;2024-02-26T08:29:05;7.90;73.20
32506;DHT22;18955;51.224;8.482;2024-02-26T08:31:31;7.70;73.90
32506;DHT22;18955;51.224;8.482;2024-02-26T08:33:58;7.40;74.80
32506;DHT22;18955;51.224;8.482;2024-02-26T08:36:25;7.60;74.60
32506;DHT22;18955;51.224;8.482;2024-02-26T08:38:51;7.90;73.30
32506;DHT22;18955;51.224;8.482;2024-02-26T08:41:17;7.70;73.80
32506;DHT22;18955;51.224;8.482;2024-02-26T08:43:43;7.50;74.70
32506;DHT22;18955;51.224;8.482;2024-02-26T08:46:10;7.50;75.10
32506;DHT22;18955;51.224;8.482;2024-02-26T08:48:39;7.90;73.30
32506;DHT22;18955;51.224;8.482;2024-02-26T08:51:06;7.80;73.60
32506;DHT22;18955;51.224;8.482;2024-02-26T08:53:33;7.60;74.60
32506;DHT22;18955;51.224;8.482;2024-02-26T08:55:59;7.50;75.10
32506;DHT22;18955;51.224;8.482;2024-02-26T08:58:27;7.90;73.60
32506;DHT22;18955;51.224;8.482;2024-02-26T09:00:54;7.80;73.60
32506;DHT22;18955;51.224;8.482;2024-02-26T09:03:21;7.60;74.50
32506;DHT22;18955;51.224;8.482;2024-02-26T09:05:47;7.40;75.00
32506;DHT22;18955;51.224;8.482;2024-02-26T09:08:13;7.90;73.60
32506;DHT22;18955;51.224;8.482;2024-02-26T09:10:40;7.80;73.40
32506;DHT22;18955;51.224;8.482;2024-02-26T09:13:06;7.70;74.30
32506;DHT22;18955;51.224;8.482;2024-02-26T09:15:33;7.40;75.00
32506;DHT22;18955;51.224;8.482;2024-02-26T09:17:59;7.90;74.00
32506;DHT22;18955;51.224;8.482;2024-02-26T09:20:25;7.90;73.30
32506;DHT22;18955;51.224;8.482;2024-02-26T09:22:52;7.70;74.00
32506;DHT22;18955;51.224;8.482;2024-02-26T09:25:18;7.50;75.00
32506;DHT22;18955;51.224;8.482;2024-02-26T09:27:45;7.70;74.80
32506;DHT22;18955;51.224;8.482;2024-02-26T09:30:11;8.00;73.40
32506;DHT22;18955;51.224;8.482;2024-02-26T09:32:38;7.80;73.90
32506;DHT22;18955;51.224;8.482;2024-02-26T09:35:05;7.60;74.70
32506;DHT22;18955;51.224;8.482;2024-02-26T09:37:32;7.60;75.30
32506;DHT22;18955;51.224;8.482;2024-02-26T09:39:59;7.90;73.50
32506;DHT22;18955;51.224;8.482;2024-02-26T09:42:26;7.90;73.80
32506;DHT22;18955;51.224;8.482;2024-02-26T09:44:59;7.60;74.60
32506;DHT22;18955;51.224;8.482;2024-02-26T09:47:31;7.50;75.10
32506;DHT22;18955;51.224;8.482;2024-02-26T09:49:59;8.00;73.60
32506;DHT22;18955;51.224;8.482;2024-02-26T09:52:28;7.90;73.50
32506;DHT22;18955;51.224;8.482;2024-02-26T09:54:57;7.70;74.50
32506;DHT22;18955;51.224;8.482;2024-02-26T09:57:23;7.50;75.10
32506;DHT22;18955;51.224;8.482;2024-02-26T09:59:53;8.00;73.90
32506;DHT22;18955;51.224;8.482;2024-02-26T10:02:20;8.00;73.60
32506;DHT22;18955;51.224;8.482;2024-02-26T10:04:47;7.80;74.40
32506;DHT22;18955;51.224;8.482;2024-02-26T10:07:16;7.60;75.30
32506;DHT22;18955;51.224;8.482;2024-02-26T10:09:43;7.90;74.30
32506;DHT22;18955;51.224;8.482;2024-02-26T10:12:10;8.10;73.50
32506;DHT22;18955;51.224;8.482;2024-02-26T10:14:37;7.90;74.30
32506;DHT22;18955;51.224;8.482;2024-02-26T10:17:07;7.70;75.10
32506;DHT22;18955;51.224;8.482;2024-02-26T10:19:34;7.80;75.20
32506;DHT22;18955;51.224;8.482;2024-02-26T10:22:01;8.10;74.10
32506;DHT22;18955;51.224;8.482;2024-02-26T10:24:29;8.00;74.10
32506;DHT22;18955;51.224;8.482;2024-02-26T10:26:56;7.80;75.00
32506;DHT22;18955;51.224;8.482;2024-02-26T10:29:25;7.70;75.50
32506;DHT22;18955;51.224;8.482;2024-02-26T10:31:52;8.20;73.80
32506;DHT22;18955;51.224;8.482;2024-02-26T10:34:19;8.10;73.90
32506;DHT22;18955;51.224;8.482;2024-02-26T10:36:46;7.80;74.70
32506;DHT22;18955;51.224;8.482;2024-02-26T10:39:13;7.70;75.40
32506;DHT22;18955;51.224;8.482;2024-02-26T10:41:44;8.10;74.10
32506;DHT22;18955;51.224;8.482;2024-02-26T10:44:11;8.20;73.70
32506;DHT22;18955;51.224;8.482;2024-02-26T10:46:41;7.90;74.50
32506;DHT22;18955;51.224;8.482;2024-02-26T10:49:14;7.70;75.20
32506;DHT22;18955;51.224;8.482;2024-02-26T10:51:45;8.10;74.70
32506;DHT22;18955;51.224;8.482;2024-02-26T10:54:15;8.30;73.60
32506;DHT22;18955;51.224;8.482;2024-02-26T10:56:42;8.10;74.30
32506;DHT22;18955;51.224;8.482;2024-02-26T10:59:09;7.90;75.20
32506;DHT22;18955;51.224;8.482;2024-02-26T11:01:39;7.90;75.60
32506;DHT22;18955;51.224;8.482;2024-02-26T11:04:08;8.20;73.90
32506;DHT22;18955;51.224;8.482;2024-02-26T11:06:35;8.10;74.20
32506;DHT22;18955;51.224;8.482;2024-02-26T11:09:02;7.90;75.10
32506;DHT22;18955;51.224;8.482;2024-02-26T11:11:32;7.80;75.70
32506;DHT22;18955;51.224;8.482;2024-02-26T11:14:01;8.30;74.10
32506;DHT22;18955;51.224;8.482;2024-02-26T11:16:30;8.30;74.00
32506;DHT22;18955;51.224;8.482;2024-02-26T11:18:57;8.10;74.90
32506;DHT22;18955;51.224;8.482;2024-02-26T11:21:24;7.80;75.70
32506;DHT22;18955;51.224;8.482;2024-02-26T11:23:57;8.20;74.90
32506;DHT22;18955;51.224;8.482;2024-02-26T11:26:24;8.30;74.00
32506;DHT22;18955;51.224;8.482;2024-02-26T11:28:52;8.20;74.60
32506;DHT22;18955;51.224;8.482;2024-02-26T11:31:19;8.00;75.40
32506;DHT22;18955;51.224;8.482;2024-02-26T11:33:52;8.00;75.80
32506;DHT22;18955;51.224;8.482;2024-02-26T11:36:19;8.40;74.00
32506;DHT22;18955;51.224;8.482;2024-02-26T11:38:46;8.30;74.30
32506;DHT22;18955;51.224;8.482;2024-02-26T11:41:15;8.10;75.20
32506;DHT22;18955;51.224;8.482;2024-02-26T11:44:08;7.90;75.80
32506;DHT22;18955;51.224;8.482;2024-02-26T11:46:42;8.40;74.30
32506;DHT22;18955;51.224;8.482;2024-02-26T11:51:51;8.20;75.10
32506;DHT22;18955;51.224;8.482;2024-02-26T11:54:38;7.90;75.90
32506;DHT22;18955;51.224;8.482;2024-02-26T11:57:04;8.50;74.60
32506;DHT22;18955;51.224;8.482;2024-02-26T11:59:40;8.40;74.20
32506;DHT22;18955;51.224;8.482;2024-02-26T12:02:07;8.30;75.10
32506;DHT22;18955;51.224;8.482;2024-02-26T12:04:36;8.10;75.90
32506;DHT22;18955;51.224;8.482;2024-02-26T12:07:03;8.30;75.70
32506;DHT22;18955;51.224;8.482;2024-02-26T12:09:39;8.50;74.30
32506;DHT22;18955;51.224;8.482;2024-02-26T12:12:12;8.40;74.80
32506;DHT22;18955;51.224;8.482;2024-02-26T12:14:40;8.20;75.70
32506;DHT22;18955;51.224;8.482;2024-02-26T12:17:23;8.10;76.20
32506;DHT22;18955;51.224;8.482;2024-02-26T12:19:50;8.60;74.40
32506;DHT22;18955;51.224;8.482;2024-02-26T12:22:19;8.50;74.50
32506;DHT22;18955;51.224;8.482;2024-02-26T12:24:45;8.30;75.30
32506;DHT22;18955;51.224;8.482;2024-02-26T12:27:12;8.10;76.10
32506;DHT22;18955;51.224;8.482;2024-02-26T12:29:39;8.60;75.10
32506;DHT22;18955;51.224;8.482;2024-02-26T12:32:06;8.60;74.30
32506;DHT22;18955;51.224;8.482;2024-02-26T12:34:32;8.50;74.90
32506;DHT22;18955;51.224;8.482;2024-02-26T12:36:59;8.30;75.80
32506;DHT22;18955;51.224;8.482;2024-02-26T12:39:25;8.20;76.40
32506;DHT22;18955;51.224;8.482;2024-02-26T12:41:51;8.70;74.50
32506;DHT22;18955;51.224;8.482;2024-02-26T12:44:18;8.60;74.40
32506;DHT22;18955;51.224;8.482;2024-02-26T12:46:50;8.40;75.30
32506;DHT22;18955;51.224;8.482;2024-02-26T12:49:16;8.30;76.20
32506;DHT22;18955;51.224;8.482;2024-02-26T12:51:47;8.50;75.60
32506;DHT22;18955;51.224;8.482;2024-02-26T12:54:13;8.80;74.40
32506;DHT22;18955;51.224;8.482;2024-02-26T12:56:40;8.60;74.80
32506;DHT22;18955;51.224;8.482;2024-02-26T12:59:07;8.40;75.60
32506;DHT22;18955;51.224;8.482;2024-02-26T13:01:34;8.30;76.30
32506;DHT22;18955;51.224;8.482;2024-02-26T13:04:00;8.80;74.70
32506;DHT22;18955;51.224;8.482;2024-02-26T13:06:32;8.80;74.30
32506;DHT22;18955;51.224;8.482;2024-02-26T13:09:00;8.60;75.00
32506;DHT22;18955;51.224;8.482;2024-02-26T13:11:28;8.40;75.90
32506;DHT22;18955;51.224;8.482;2024-02-26T13:13:55;8.40;76.50
32506;DHT22;18955;51.224;8.482;2024-02-26T13:16:24;8.90;74.50
32506;DHT22;18955;51.224;8.482;2024-02-26T13:18:51;8.90;74.60
32506;DHT22;18955;51.224;8.482;2024-02-26T13:21:18;8.70;75.50
32506;DHT22;18955;51.224;8.482;2024-02-26T13:23:48;8.50;76.30
32506;DHT22;18955;51.224;8.482;2024-02-26T13:26:16;8.70;76.10
32506;DHT22;18955;51.224;8.482;2024-02-26T13:28:42;9.00;74.60
32506;DHT22;18955;51.224;8.482;2024-02-26T13:31:08;8.90;74.90
32506;DHT22;18955;51.224;8.482;2024-02-26T13:33:35;8.70;75.60
32506;DHT22;18955;51.224;8.482;2024-02-26T13:36:02;8.50;76.30
32506;DHT22;18955;51.224;8.482;2024-02-26T13:38:28;8.90;75.60
32506;DHT22;18955;51.224;8.482;2024-02-26T13:40:55;9.10;74.70
32506;DHT22;18955;51.224;8.482;2024-02-26T13:43:22;8.90;75.10
32506;DHT22;18955;51.224;8.482;2024-02-26T13:45:48;8.70;75.90
32506;DHT22;18955;51.224;8.482;2024-02-26T13:48:14;8.60;76.60
32506;DHT22;18955;51.224;8.482;2024-02-26T13:50:41;9.00;75.30
32506;DHT22;18955;51.224;8.482;2024-02-26T13:53:14;9.10;74.70
32506;DHT22;18955;51.224;8.482;2024-02-26T13:55:41;8.90;75.90
32506;DHT22;18955;51.224;8.482;2024-02-26T13:58:12;8.70;76.20
32506;DHT22;18955;51.224;8.482;2024-02-26T14:00:42;8.60;76.70
32506;DHT22;18955;51.224;8.482;2024-02-26T14:03:08;9.20;74.90
32506;DHT22;18955;51.224;8.482;2024-02-26T14:05:34;9.10;74.70
32506;DHT22;18955;51.224;8.482;2024-02-26T14:08:01;9.00;75.60
32506;DHT22;18955;51.224;8.482;2024-02-26T14:10:28;8.80;76.20
32506;DHT22;18955;51.224;8.482;2024-02-26T14:12:54;8.70;76.70
32506;DHT22;18955;51.224;8.482;2024-02-26T14:15:21;9.20;75.00
32506;DHT22;18955;51.224;8.482;2024-02-26T14:17:47;9.20;74.80
32506;DHT22;18955;51.224;8.482;2024-02-26T14:20:19;9.00;75.70
32506;DHT22;18955;51.224;8.482;2024-02-26T14:22:46;8.80;76.40
32506;DHT22;18955;51.224;8.482;2024-02-26T14:25:12;8.80;76.90
32506;DHT22;18955;51.224;8.482;2024-02-26T14:27:38;9.20;75.00
32506;DHT22;18955;51.224;8.482;2024-02-26T14:30:05;9.20;75.00
32506;DHT22;18955;51.224;8.482;2024-02-26T14:32:31;9.00;75.80
32506;DHT22;18955;51.224;8.482;2024-02-26T14:35:09;8.80;76.50
32506;DHT22;18955;51.224;8.482;2024-02-26T14:37:36;8.90;76.90
32506;DHT22;18955;51.224;8.482;2024-02-26T14:40:03;9.30;75.00
32506;DHT22;18955;51.224;8.482;2024-02-26T14:42:29;9.30;75.10
32506;DHT22;18955;51.224;8.482;2024-02-26T14:44:56;9.10;76.00
32506;DHT22;18955;51.224;8.482;2024-02-26T14:47:22;8.90;76.60
32506;DHT22;18955;51.224;8.482;2024-02-26T14:49:48;8.90;77.10
32506;DHT22;18955;51.224;8.482;2024-02-26T14:52:17;9.30;75.30
32506;DHT22;18955;51.224;8.482;2024-02-26T14:54:44;9.30;75.20
32506;DHT22;18955;51.224;8.482;2024-02-26T14:57:10;9.10;76.00
32506;DHT22;18955;51.224;8.482;2024-02-26T14:59:36;8.90;77.00
32506;DHT22;18955;51.224;8.482;2024-02-26T15:02:03;8.90;77.10
32506;DHT22;18955;51.224;8.482;2024-02-26T15:04:30;9.40;75.30
32506;DHT22;18955;51.224;8.482;2024-02-26T15:06:56;9.40;75.10
32506;DHT22;18955;51.224;8.482;2024-02-26T15:09:22;9.20;75.70
32506;DHT22;18955;51.224;8.482;2024-02-26T15:11:48;9.00;76.50
32506;DHT22;18955;51.224;8.482;2024-02-26T15:14:14;8.90;77.10
32506;DHT22;18955;51.224;8.482;2024-02-26T15:16:41;9.30;75.80
32506;DHT22;18955;51.224;8.482;2024-02-26T15:19:07;9.40;75.20
32506;DHT22;18955;51.224;8.482;2024-02-26T15:21:33;9.30;75.80
32506;DHT22;18955;51.224;8.482;2024-02-26T15:24:00;9.10;76.60
32506;DHT22;18955;51.224;8.482;2024-02-26T15:26:26;8.90;77.20
32506;DHT22;18955;51.224;8.482;2024-02-26T15:28:52;9.30;76.30
32506;DHT22;18955;51.224;8.482;2024-02-26T15:31:21;9.40;75.30
32506;DHT22;18955;51.224;8.482;2024-02-26T15:33:48;9.30;75.80
32506;DHT22;18955;51.224;8.482;2024-02-26T15:36:14;9.10;76.60
32506;DHT22;18955;51.224;8.482;2024-02-26T15:38:40;9.00;77.30
32506;DHT22;18955;51.224;8.482;2024-02-26T15:41:13;9.20;76.80
32506;DHT22;18955;51.224;8.482;2024-02-26T15:43:40;9.50;75.20
32506;DHT22;18955;51.224;8.482;2024-02-26T15:46:06;9.40;75.70